Time;durP1;ratioP1;P1;durP2;ratioP2;P2;SDS_P1;SDS_P2;PMS_P1;PMS_P2;Temp;Humidity;BMP_temperature;BMP_pressure;BME280_temperature;BME280_humidity;BME280_pressure;Samples;Min_cycle;Max_cycle;Signal;HPM_P1;HPM_P2
2022/08/28 03:19:53;;;;;;;58.37;52.47;;;19.40;99.90;;;;;;4911941;29;20450;-71
2022/08/28 03:23:24;;;;;;;58.97;52.90;;;19.40;99.90;;;;;;4915561;29;20462;-71
2022/08/28 03:25:08;;;;;;;56.97;51.07;;;19.40;99.90;;;;;;4915355;29;20455;-72
2022/08/28 03:27:35;;;;;;;57.10;51.70;;;19.40;99.90;;;;;;4915491;29;20865;-71
2022/08/28 03:30:02;;;;;;;55.10;50.00;;;19.20;99.90;;;;;;4915470;29;20485;-71
2022/08/28 03:32:30;;;;;;;56.67;51.40;;;19.40;99.90;;;;;;4915623;29;20486;-73
2022/08/28 03:34:58;;;;;;;58.53;53.03;;;19.50;99.90;;;;;;4915442;29;20800;-71
2022/08/28 03:37:25;;;;;;;56.10;50.80;;;19.40;99.90;;;;;;4914241;29;20557;-71
2022/08/28 03:39:52;;;;;;;53.57;48.73;;;19.50;99.90;;;;;;4915402;29;20457;-70
2022/08/28 03:42:18;;;;;;;54.40;49.40;;;19.50;99.90;;;;;;4915329;29;20850;-70
2022/08/28 03:44:45;;;;;;;53.57;48.60;;;19.50;99.90;;;;;;4915419;29;20450;-70
2022/08/28 03:47:12;;;;;;;56.27;51.00;;;19.60;99.90;;;;;;4915586;29;20454;-69
2022/08/28 03:49:38;;;;;;;54.87;49.67;;;19.60;99.90;;;;;;4915185;29;20493;-70
2022/08/28 03:52:06;;;;;;;54.63;48.87;;;19.60;99.90;;;;;;4915058;29;20471;-69
2022/08/28 03:54:33;;;;;;;54.33;48.83;;;19.50;99.90;;;;;;4915081;29;20462;-70
2022/08/28 03:57:00;;;;;;;52.97;47.60;;;19.50;99.90;;;;;;4915143;29;20462;-70
2022/08/28 03:59:27;;;;;;;52.33;47.60;;;19.50;99.90;;;;;;4915004;29;20856;-70
2022/08/28 04:01:54;;;;;;;51.80;46.60;;;19.50;99.90;;;;;;4914711;29;20459;-70
2022/08/28 04:04:21;;;;;;;50.13;45.40;;;19.50;99.90;;;;;;4914801;29;20490;-70
2022/08/28 04:06:48;;;;;;;49.10;44.50;;;19.60;99.90;;;;;;4914837;29;20461;-70
2022/08/28 04:09:16;;;;;;;53.37;48.20;;;19.60;99.90;;;;;;4914699;29;20466;-71
2022/08/28 04:11:42;;;;;;;51.30;46.40;;;19.60;99.90;;;;;;4914890;29;20446;-71
2022/08/28 04:14:09;;;;;;;50.83;45.90;;;19.70;99.90;;;;;;4914731;29;20458;-70
2022/08/28 04:16:37;;;;;;;49.83;45.43;;;19.60;99.90;;;;;;4914491;29;20478;-71
2022/08/28 04:19:03;;;;;;;49.67;45.07;;;19.60;99.90;;;;;;4914349;29;20486;-71
2022/08/28 04:21:30;;;;;;;51.40;46.47;;;19.70;99.90;;;;;;4914651;29;20457;-71
2022/08/28 04:23:57;;;;;;;50.03;44.97;;;19.70;99.90;;;;;;4914661;29;20469;-71
2022/08/28 04:26:27;;;;;;;49.50;44.30;;;19.70;99.90;;;;;;4914396;29;20695;-71
2022/08/28 04:28:54;;;;;;;48.00;43.50;;;19.70;99.90;;;;;;4914595;29;20458;-71
2022/08/28 04:31:21;;;;;;;49.27;44.67;;;19.70;99.90;;;;;;4914218;29;20498;-70
2022/08/28 04:33:48;;;;;;;46.07;41.80;;;19.80;99.90;;;;;;4914241;29;20454;-71
2022/08/28 04:36:18;;;;;;;48.80;44.00;;;19.90;99.90;;;;;;4914725;29;20465;-71
2022/08/28 04:38:45;;;;;;;46.10;42.10;;;19.90;99.90;;;;;;4914578;29;20462;-71
2022/08/28 04:41:14;;;;;;;49.07;44.67;;;19.80;99.90;;;;;;4914305;29;20454;-72
2022/08/28 04:43:42;;;;;;;46.30;42.20;;;19.90;99.90;;;;;;4914190;29;20469;-70
2022/08/28 04:46:11;;;;;;;45.40;41.10;;;19.90;99.90;;;;;;4914037;29;20541;-70
2022/08/28 04:48:38;;;;;;;45.90;42.00;;;19.80;99.90;;;;;;4913765;29;20462;-69
2022/08/28 04:51:07;;;;;;;45.77;41.40;;;19.70;99.90;;;;;;4914051;29;20554;-69
2022/08/28 04:53:34;;;;;;;45.83;41.83;;;19.80;99.90;;;;;;4913928;29;20494;-70
2022/08/28 04:56:05;;;;;;;44.03;39.60;;;19.90;99.90;;;;;;4914263;29;20875;-70
2022/08/28 04:58:32;;;;;;;42.70;39.00;;;19.80;99.90;;;;;;4914250;29;20454;-70
2022/08/28 05:01:06;;;;;;;42.73;39.10;;;19.80;99.90;;;;;;4914225;29;20463;-70
2022/08/28 05:03:34;;;;;;;40.60;37.10;;;19.80;99.90;;;;;;4914137;29;20580;-71
2022/08/28 05:06:01;;;;;;;43.27;39.17;;;19.70;99.90;;;;;;4914407;29;20834;-70
2022/08/28 05:08:28;;;;;;;43.13;39.43;;;19.70;99.90;;;;;;4914295;29;20980;-71
2022/08/28 05:10:56;;;;;;;40.33;36.80;;;19.70;99.90;;;;;;4914062;29;20498;-71
2022/08/28 05:13:24;;;;;;;41.43;37.93;;;19.90;99.90;;;;;;4913955;29;20862;-72
2022/08/28 05:15:52;;;;;;;43.13;39.33;;;20.00;99.90;;;;;;4913917;29;20465;-70
2022/08/28 05:18:23;;;;;;;38.70;35.60;;;20.00;99.90;;;;;;4913825;29;20501;-70
2022/08/28 05:20:49;;;;;;;40.50;36.60;;;19.90;99.90;;;;;;4914036;29;20823;-72
2022/08/28 05:23:17;;;;;;;42.80;39.00;;;20.00;99.90;;;;;;4914000;29;20948;-72
2022/08/28 05:25:46;;;;;;;41.87;38.23;;;19.90;99.90;;;;;;4914131;29;20446;-71
2022/08/28 05:28:15;;;;;;;39.33;35.57;;;20.00;99.90;;;;;;4914059;29;21139;-70
2022/08/28 05:30:43;;;;;;;40.77;36.90;;;19.90;99.90;;;;;;4913802;29;20490;-72
2022/08/28 05:33:12;;;;;;;43.47;39.33;;;20.10;99.90;;;;;;4913682;29;20459;-71
2022/08/28 05:35:41;;;;;;;43.20;39.50;;;20.10;99.90;;;;;;4913688;29;20518;-71
2022/08/28 05:38:09;;;;;;;40.17;36.80;;;20.20;99.90;;;;;;4913540;29;20450;-70
2022/08/28 05:40:42;;;;;;;41.43;37.63;;;20.20;99.90;;;;;;4913915;29;20482;-69
2022/08/28 05:43:09;;;;;;;40.20;36.67;;;20.30;99.90;;;;;;4913542;29;20458;-70
2022/08/28 05:45:35;;;;;;;39.63;36.40;;;20.40;99.90;;;;;;4913565;29;20458;-70
2022/08/28 05:48:03;;;;;;;38.20;34.97;;;20.50;99.90;;;;;;4913840;29;20458;-71
2022/08/28 05:50:30;;;;;;;39.37;36.13;;;20.60;99.90;;;;;;4913810;29;20581;-71
2022/08/28 05:52:58;;;;;;;41.23;37.77;;;20.50;99.90;;;;;;4913380;29;20490;-71
2022/08/28 05:55:24;;;;;;;42.40;39.00;;;20.50;99.90;;;;;;4913934;29;20756;-69
2022/08/28 05:57:51;;;;;;;40.63;37.60;;;20.50;99.90;;;;;;4913664;29;20457;-71
2022/08/28 06:00:18;;;;;;;39.93;36.37;;;20.50;99.90;;;;;;4914373;29;20818;-72
2022/08/28 06:02:44;;;;;;;39.00;35.80;;;20.50;99.90;;;;;;4917376;29;20458;-72
2022/08/28 06:05:11;;;;;;;37.90;35.10;;;20.70;99.90;;;;;;4917146;29;20462;-72
2022/08/28 06:07:39;;;;;;;36.80;34.00;;;20.70;99.90;;;;;;4917197;29;20870;-71
2022/08/28 06:10:08;;;;;;;40.10;36.60;;;20.80;99.90;;;;;;4916873;29;20494;-73
2022/08/28 06:12:35;;;;;;;36.90;34.07;;;20.80;99.90;;;;;;4916896;29;20469;-71
2022/08/28 06:15:02;;;;;;;37.77;35.00;;;21.00;99.90;;;;;;4917385;29;20454;-71
2022/08/28 06:17:28;;;;;;;37.10;34.00;;;21.10;99.90;;;;;;4916712;29;20821;-69
2022/08/28 06:19:55;;;;;;;36.87;33.97;;;21.30;99.90;;;;;;4916859;29;20458;-71
2022/08/28 06:22:22;;;;;;;38.33;34.93;;;21.40;99.90;;;;;;4917291;29;20461;-69
2022/08/28 06:24:48;;;;;;;37.57;34.93;;;21.40;99.90;;;;;;4917188;29;20469;-71
2022/08/28 06:27:16;;;;;;;37.77;35.00;;;21.30;99.90;;;;;;4917293;29;20876;-70
2022/08/28 06:29:43;;;;;;;35.67;32.80;;;21.40;99.90;;;;;;4917048;29;20454;-70
2022/08/28 06:32:10;;;;;;;35.80;33.00;;;21.40;99.90;;;;;;4916707;29;20853;-70
2022/08/28 06:34:36;;;;;;;35.40;32.70;;;21.50;99.90;;;;;;4917069;29;20457;-70
2022/08/28 06:37:03;;;;;;;34.17;31.77;;;21.60;99.90;;;;;;4917916;29;20465;-70
2022/08/28 06:39:30;;;;;;;35.43;32.67;;;21.80;99.90;;;;;;4918086;29;20464;-70
2022/08/28 06:41:57;;;;;;;34.17;31.97;;;21.90;99.90;;;;;;4917170;29;20474;-70
2022/08/28 06:44:25;;;;;;;33.10;30.70;;;21.90;99.90;;;;;;4916959;29;20446;-70
2022/08/28 06:46:53;;;;;;;32.03;29.73;;;22.00;99.90;;;;;;4916888;29;20846;-71
2022/08/28 06:49:20;;;;;;;31.93;29.73;;;22.10;99.90;;;;;;4916796;29;20514;-70
2022/08/28 06:51:47;;;;;;;29.90;27.90;;;22.30;99.90;;;;;;4917068;29;20498;-70
2022/08/28 06:54:16;;;;;;;29.90;27.70;;;22.40;99.90;;;;;;4916911;29;20457;-72
2022/08/28 06:56:43;;;;;;;30.87;28.50;;;22.30;99.90;;;;;;4916929;29;20496;-71
2022/08/28 06:59:10;;;;;;;29.90;27.90;;;22.40;99.90;;;;;;4916438;29;20469;-71
2022/08/28 07:01:38;;;;;;;30.90;29.00;;;22.50;99.90;;;;;;4916701;29;20546;-70
2022/08/28 07:04:07;;;;;;;30.20;28.07;;;22.60;99.90;;;;;;4916691;29;20454;-71
2022/08/28 07:06:37;;;;;;;29.40;27.00;;;22.60;99.90;;;;;;4916103;29;20456;-70
2022/08/28 07:09:06;;;;;;;30.40;27.73;;;22.70;99.90;;;;;;4914676;29;20971;-72
2022/08/28 07:11:34;;;;;;;28.90;26.70;;;22.80;99.90;;;;;;4915048;29;20497;-71
2022/08/28 07:14:02;;;;;;;27.90;26.10;;;22.90;99.90;;;;;;4915986;29;20489;-71
2022/08/28 07:16:31;;;;;;;28.27;25.80;;;22.90;99.90;;;;;;4916066;29;20701;-72
2022/08/28 07:19:02;;;;;;;29.10;27.07;;;23.00;99.90;;;;;;4915533;29;20485;-73
2022/08/28 07:21:29;;;;;;;26.30;24.70;;;23.30;99.90;;;;;;4916052;29;20473;-71
2022/08/28 07:23:56;;;;;;;27.27;25.40;;;23.30;99.90;;;;;;4915517;29;20526;-71
2022/08/28 07:26:24;;;;;;;28.50;26.33;;;23.60;99.90;;;;;;4915556;29;20458;-71
2022/08/28 07:28:53;;;;;;;26.53;24.63;;;23.70;99.90;;;;;;4915357;29;20500;-72
2022/08/28 07:31:22;;;;;;;27.23;25.30;;;23.60;99.90;;;;;;4915166;29;21094;-72
2022/08/28 07:33:49;;;;;;;28.57;26.47;;;23.60;99.90;;;;;;4915261;29;20461;-71
2022/08/28 07:36:20;;;;;;;27.40;25.50;;;23.30;99.90;;;;;;4915819;29;20446;-71
2022/08/28 07:38:47;;;;;;;26.30;24.50;;;23.20;99.90;;;;;;4915471;29;20446;-71
2022/08/28 07:41:15;;;;;;;29.00;26.90;;;23.10;99.90;;;;;;4915292;29;20486;-71
2022/08/28 07:46:28;;;;;;;27.33;25.43;;;23.30;99.90;;;;;;4914983;29;20445;-69
2022/08/28 07:48:55;;;;;;;26.73;25.10;;;23.20;99.90;;;;;;4915043;29;20549;-66
2022/08/28 07:51:23;;;;;;;26.00;24.33;;;23.30;99.90;;;;;;4914954;29;20498;-68
2022/08/28 07:53:51;;;;;;;27.17;25.37;;;23.40;99.90;;;;;;4915380;29;20490;-70
2022/08/28 07:56:18;;;;;;;26.83;25.03;;;23.20;99.90;;;;;;4915235;29;20510;-70
2022/08/28 07:58:44;;;;;;;27.10;25.27;;;23.50;99.90;;;;;;4914990;29;20454;-70
2022/08/28 08:01:11;;;;;;;29.03;26.70;;;23.60;99.90;;;;;;4914612;29;20442;-70
2022/08/28 08:03:38;;;;;;;25.00;23.30;;;23.80;99.90;;;;;;4914616;29;20493;-70
2022/08/28 08:06:05;;;;;;;25.27;23.83;;;23.80;99.90;;;;;;4914445;29;20459;-70
2022/08/28 08:08:34;;;;;;;27.83;25.73;;;23.90;99.90;;;;;;4914656;29;20458;-70
2022/08/28 08:11:04;;;;;;;26.03;24.30;;;24.00;99.90;;;;;;4914575;29;21004;-70
2022/08/28 08:13:32;;;;;;;25.80;24.10;;;24.10;99.90;;;;;;4915131;29;20462;-70
2022/08/28 08:16:04;;;;;;;27.20;25.20;;;24.30;99.90;;;;;;4914407;29;20450;-71
2022/08/28 08:18:32;;;;;;;25.67;23.70;;;24.30;99.90;;;;;;4914407;29;20486;-70
2022/08/28 08:20:59;;;;;;;24.83;23.17;;;24.30;99.90;;;;;;4914657;29;20481;-70
2022/08/28 08:23:26;;;;;;;24.07;22.37;;;24.70;99.90;;;;;;4913634;29;20455;-71
2022/08/28 08:25:59;;;;;;;26.20;24.30;;;25.30;99.90;;;;;;4914275;29;20455;-71
2022/08/28 08:28:26;;;;;;;24.17;22.77;;;25.40;99.90;;;;;;4914440;29;20704;-71
2022/08/28 08:31:03;;;;;;;24.77;23.20;;;25.50;99.90;;;;;;4914138;29;20525;-71
2022/08/28 08:33:30;;;;;;;22.90;21.47;;;26.00;99.90;;;;;;4914223;29;20944;-72
2022/08/28 08:35:57;;;;;;;24.93;23.23;;;26.20;99.90;;;;;;4913884;29;20485;-72
2022/08/28 08:38:24;;;;;;;24.50;23.00;;;26.50;99.90;;;;;;4913800;29;20450;-71
2022/08/28 08:40:51;;;;;;;22.60;21.10;;;26.40;99.90;;;;;;4914101;29;20462;-72
2022/08/28 08:43:20;;;;;;;23.20;21.70;;;26.40;99.90;;;;;;4914128;29;20501;-72
2022/08/28 08:45:49;;;;;;;23.50;22.10;;;26.50;99.90;;;;;;4914197;29;20458;-72
2022/08/28 08:48:24;;;;;;;24.10;22.50;;;26.40;99.90;;;;;;4914275;29;21174;-72
2022/08/28 08:50:51;;;;;;;23.03;21.27;;;26.70;99.90;;;;;;4913700;29;20457;-71
2022/08/28 08:53:29;;;;;;;23.20;21.80;;;26.80;99.90;;;;;;4911047;29;20955;-72
2022/08/28 08:55:57;;;;;;;24.90;23.40;;;26.80;99.90;;;;;;4914300;29;20458;-71
2022/08/28 08:58:31;;;;;;;23.50;21.93;;;27.30;99.90;;;;;;4914297;29;20458;-72
2022/08/28 09:01:02;;;;;;;23.23;21.33;;;27.80;99.90;;;;;;4914533;29;20461;-73
2022/08/28 09:03:46;;;;;;;21.60;20.40;;;28.10;99.90;;;;;;4914529;29;20465;-73
2022/08/28 09:06:21;;;;;;;23.30;21.90;;;29.20;99.90;;;;;;4914211;29;20446;-72
2022/08/28 09:08:52;;;;;;;23.57;21.97;;;29.80;99.30;;;;;;4914365;29;20458;-73
2022/08/28 09:11:31;;;;;;;22.93;21.60;;;29.90;97.80;;;;;;4914101;29;20494;-72
2022/08/28 09:14:05;;;;;;;21.63;20.53;;;29.90;98.90;;;;;;4912473;29;20482;-72
2022/08/28 09:16:38;;;;;;;22.00;20.70;;;29.00;98.90;;;;;;4912375;29;20481;-73
2022/08/28 09:19:06;;;;;;;22.30;20.90;;;28.90;99.90;;;;;;4913866;29;20892;-72
2022/08/28 09:21:38;;;;;;;21.33;20.00;;;29.10;99.90;;;;;;4914064;29;20506;-73
2022/08/28 09:24:10;;;;;;;21.40;20.10;;;30.10;98.50;;;;;;4913964;29;20465;-71
2022/08/28 09:26:37;;;;;;;21.93;20.60;;;29.90;97.60;;;;;;4913815;29;20458;-72
2022/08/28 09:29:14;;;;;;;22.37;21.03;;;30.40;97.20;;;;;;4913978;29;20462;-73
2022/08/28 09:31:41;;;;;;;20.87;19.57;;;31.00;96.70;;;;;;4913659;29;20916;-73
2022/08/28 09:34:28;;;;;;;21.37;20.13;;;31.10;94.40;;;;;;4913661;29;20731;-72
2022/08/28 09:36:57;;;;;;;21.20;20.03;;;31.00;94.20;;;;;;4917052;29;20960;-72
2022/08/28 09:39:26;;;;;;;21.57;20.30;;;31.00;94.80;;;;;;4917708;29;20481;-72
2022/08/28 09:44:59;;;;;;;20.87;19.77;;;30.50;94.30;;;;;;4918006;29;20506;-73
2022/08/28 09:47:45;;;;;;;22.23;20.80;;;30.40;94.60;;;;;;4917428;29;20457;-72
2022/08/28 09:50:31;;;;;;;22.00;20.80;;;29.80;95.70;;;;;;4917700;29;20446;-73
2022/08/28 09:53:11;;;;;;;20.37;19.10;;;29.70;96.10;;;;;;4917607;29;20550;-74
2022/08/28 09:55:49;;;;;;;21.50;20.33;;;30.30;95.30;;;;;;4917316;29;20971;-72
2022/08/28 09:58:17;;;;;;;21.37;20.17;;;31.70;92.80;;;;;;4917667;29;20959;-72
2022/08/28 10:00:54;;;;;;;21.03;19.83;;;32.10;91.00;;;;;;4917468;29;20454;-72
2022/08/28 10:03:26;;;;;;;19.43;18.53;;;32.20;88.80;;;;;;4917231;29;20457;-72
2022/08/28 10:06:03;;;;;;;20.97;19.80;;;32.30;90.00;;;;;;4917336;29;20709;-72
2022/08/28 10:08:47;;;;;;;20.70;19.70;;;32.70;89.50;;;;;;4917495;29;20465;-72
2022/08/28 10:11:19;;;;;;;21.33;20.00;;;33.30;87.20;;;;;;4917416;29;20457;-73
2022/08/28 10:13:53;;;;;;;20.97;19.80;;;32.50;87.70;;;;;;4917429;29;20446;-73
2022/08/28 10:16:30;;;;;;;20.47;19.37;;;31.30;91.10;;;;;;4916949;29;20996;-73
2022/08/28 10:19:04;;;;;;;21.30;20.10;;;31.00;91.20;;;;;;4917046;29;20513;-73
2022/08/28 10:21:42;;;;;;;22.13;20.47;;;30.10;92.90;;;;;;4917055;29;20891;-72
2022/08/28 10:24:30;;;;;;;20.17;19.17;;;30.60;92.70;;;;;;4917237;29;20774;-72
2022/08/28 10:27:05;;;;;;;20.43;19.40;;;31.70;91.00;;;;;;4917132;29;20458;-73
2022/08/28 10:29:44;;;;;;;19.17;18.23;;;32.60;86.70;;;;;;4917166;29;20481;-72
2022/08/28 10:32:42;;;;;;;20.10;19.00;;;32.50;86.10;;;;;;4916445;29;20489;-72
2022/08/28 10:35:14;;;;;;;21.00;19.40;;;31.80;86.60;;;;;;4916493;29;20465;-72
2022/08/28 10:37:52;;;;;;;21.00;19.90;;;31.10;88.10;;;;;;4916383;29;20556;-73
2022/08/28 10:40:25;;;;;;;22.03;20.93;;;30.60;90.50;;;;;;4916305;29;20537;-72
2022/08/28 10:43:01;;;;;;;21.10;19.70;;;31.30;88.70;;;;;;4916409;29;20454;-71
2022/08/28 10:45:30;;;;;;;20.00;18.90;;;31.00;89.00;;;;;;4916502;29;20824;-72
2022/08/28 10:48:01;;;;;;;19.97;18.77;;;30.60;90.80;;;;;;4915682;29;20459;-72
2022/08/28 10:50:32;;;;;;;19.40;18.50;;;30.80;89.40;;;;;;4916785;29;20588;-71
2022/08/28 10:53:02;;;;;;;19.97;18.87;;;31.10;90.00;;;;;;4916405;29;20482;-72
2022/08/28 10:55:35;;;;;;;21.13;19.97;;;30.50;90.90;;;;;;4916666;29;20464;-72
2022/08/28 10:58:04;;;;;;;19.53;18.40;;;31.30;90.00;;;;;;4916368;29;20868;-73
2022/08/28 11:00:32;;;;;;;20.20;19.10;;;31.50;86.10;;;;;;4916523;29;20473;-72
2022/08/28 11:03:04;;;;;;;20.43;19.43;;;32.20;84.20;;;;;;4916271;29;20453;-73
2022/08/28 11:05:36;;;;;;;18.57;17.57;;;33.90;80.40;;;;;;4916737;29;20465;-72
2022/08/28 11:08:07;;;;;;;20.17;19.17;;;33.60;79.30;;;;;;4916152;29;20469;-72
2022/08/28 11:10:48;;;;;;;19.10;18.00;;;33.10;79.00;;;;;;4916058;29;20899;-72
2022/08/28 11:13:39;;;;;;;20.30;19.10;;;33.60;78.50;;;;;;4916312;29;20521;-72
2022/08/28 11:16:12;;;;;;;19.07;17.90;;;33.60;78.50;;;;;;4916053;29;20457;-72
2022/08/28 11:19:18;;;;;;;17.87;16.83;;;34.00;76.60;;;;;;4915770;29;20493;-71
2022/08/28 11:21:50;;;;;;;19.73;18.63;;;33.60;77.10;;;;;;4916372;29;20446;-71
2022/08/28 11:24:28;;;;;;;18.30;17.30;;;33.00;76.10;;;;;;4916228;29;20446;-71
2022/08/28 11:27:05;;;;;;;19.17;18.10;;;33.70;76.80;;;;;;4915616;29;20457;-72
2022/08/28 11:30:02;;;;;;;17.97;17.07;;;33.40;76.80;;;;;;4916192;29;20461;-72
2022/08/28 11:32:55;;;;;;;19.83;18.93;;;33.90;77.20;;;;;;4915758;29;20498;-72
2022/08/28 11:35:47;;;;;;;20.40;19.40;;;33.90;73.60;;;;;;4915817;29;20884;-72
2022/08/28 11:38:47;;;;;;;17.30;16.50;;;34.30;72.70;;;;;;4915864;29;20572;-72
2022/08/28 11:41:20;;;;;;;21.07;19.97;;;34.90;72.30;;;;;;4915723;29;20454;-72
2022/08/28 11:43:51;;;;;;;19.33;18.43;;;35.00;71.00;;;;;;4915952;29;20454;-72
2022/08/28 11:46:27;;;;;;;19.57;18.57;;;34.80;71.20;;;;;;4915484;29;20461;-72
2022/08/28 11:48:55;;;;;;;19.13;18.13;;;34.70;72.00;;;;;;4915670;29;20461;-73
2022/08/28 11:51:44;;;;;;;20.20;19.20;;;34.20;74.30;;;;;;4915276;29;20510;-72
2022/08/28 11:54:39;;;;;;;19.17;18.17;;;34.20;72.00;;;;;;4915176;29;20442;-72
2022/08/28 11:57:13;;;;;;;20.37;19.37;;;34.10;71.40;;;;;;4915278;29;20457;-72
2022/08/28 12:00:09;;;;;;;19.43;18.50;;;34.30;72.30;;;;;;4914435;29;20817;-72
2022/08/28 12:02:50;;;;;;;19.67;18.67;;;34.30;69.90;;;;;;4914888;29;20499;-72
2022/08/28 12:05:48;;;;;;;18.60;17.70;;;34.00;72.30;;;;;;4914951;29;20458;-72
2022/08/28 12:08:50;;;;;;;19.07;18.20;;;33.90;71.20;;;;;;4915150;29;20956;-71
2022/08/28 12:11:49;;;;;;;17.90;16.90;;;32.90;73.30;;;;;;4915089;29;21031;-71
2022/08/28 12:15:06;;;;;;;19.23;18.17;;;33.60;72.40;;;;;;4915194;29;20473;-72
2022/08/28 12:17:49;;;;;;;19.20;18.27;;;34.30;70.40;;;;;;4914619;29;20490;-71
2022/08/28 12:20:37;;;;;;;20.40;19.30;;;33.70;71.80;;;;;;4915224;29;20451;-72
2022/08/28 12:23:30;;;;;;;18.60;17.73;;;34.20;72.20;;;;;;4914606;29;20525;-71
2022/08/28 12:26:01;;;;;;;19.30;18.13;;;33.20;73.50;;;;;;4914533;29;20462;-71
2022/08/28 12:28:31;;;;;;;18.63;17.57;;;32.10;78.30;;;;;;4914833;29;20461;-72
2022/08/28 12:32:09;;;;;;;19.73;18.63;;;32.50;75.40;;;;;;4914736;29;20478;-72
2022/08/28 12:34:20;;;;;;;19.90;18.90;;;32.90;74.10;;;;;;4914227;29;20453;-72
2022/08/28 12:36:54;;;;;;;19.90;18.70;;;32.10;75.20;;;;;;4914851;29;20453;-72
2022/08/28 12:39:22;;;;;;;18.40;17.50;;;32.00;77.10;;;;;;4914496;29;20458;-72
2022/08/28 12:41:49;;;;;;;18.43;17.00;;;32.50;76.20;;;;;;4914489;29;20450;-71
2022/08/28 12:44:15;;;;;;;18.47;17.57;;;33.00;74.40;;;;;;4914683;29;20948;-73
2022/08/28 12:46:43;;;;;;;19.53;17.90;;;33.20;74.60;;;;;;4914245;29;20454;-72
2022/08/28 12:49:28;;;;;;;20.30;19.30;;;33.50;75.50;;;;;;4914297;29;20469;-71
2022/08/28 12:52:09;;;;;;;18.80;18.00;;;33.60;72.80;;;;;;4914243;29;20454;-73
2022/08/28 12:54:35;;;;;;;18.63;17.57;;;33.70;73.20;;;;;;4914088;29;20457;-71
2022/08/28 12:57:05;;;;;;;20.63;19.63;;;34.10;72.60;;;;;;4914185;29;20835;-72
2022/08/28 12:59:36;;;;;;;17.87;17.03;;;33.80;70.80;;;;;;4914134;29;20477;-72
2022/08/28 13:02:04;;;;;;;18.10;17.20;;;33.20;71.90;;;;;;4914118;29;20461;-72
2022/08/28 13:04:35;;;;;;;19.97;18.97;;;32.00;74.50;;;;;;4914169;29;20455;-71
2022/08/28 13:07:09;;;;;;;18.73;17.73;;;31.10;77.50;;;;;;4914168;29;20956;-72
2022/08/28 13:09:37;;;;;;;18.80;17.60;;;31.40;78.00;;;;;;4913535;29;20481;-72
2022/08/28 13:12:04;;;;;;;19.10;18.00;;;32.10;75.40;;;;;;4914003;29;20531;-71
2022/08/28 13:14:40;;;;;;;18.90;18.00;;;32.80;74.10;;;;;;4914066;29;20465;-72
2022/08/28 13:17:08;;;;;;;19.20;18.20;;;33.10;74.10;;;;;;4913536;29;20482;-71
2022/08/28 13:19:36;;;;;;;17.60;16.80;;;33.50;72.70;;;;;;4911727;29;20519;-72
2022/08/28 13:22:07;;;;;;;17.00;16.27;;;32.80;73.30;;;;;;4913816;29;20465;-72
2022/08/28 13:24:58;;;;;;;17.67;16.70;;;32.30;75.10;;;;;;4913695;29;20940;-72
2022/08/28 13:27:25;;;;;;;19.50;18.40;;;31.40;76.10;;;;;;4913687;29;20458;-71
2022/08/28 13:30:00;;;;;;;18.23;17.33;;;30.70;77.20;;;;;;4913489;29;20442;-73
2022/08/28 13:32:28;;;;;;;17.37;16.37;;;30.90;78.60;;;;;;4913689;29;20557;-72
2022/08/28 13:35:15;;;;;;;18.60;17.60;;;31.70;77.30;;;;;;4913556;29;20485;-72
2022/08/28 13:37:45;;;;;;;16.80;15.90;;;32.30;73.30;;;;;;4913526;29;20481;-73
2022/08/28 13:40:13;;;;;;;17.87;16.87;;;32.10;74.30;;;;;;4913442;29;20454;-72
2022/08/28 13:42:39;;;;;;;16.87;16.07;;;31.10;76.00;;;;;;4913630;29;20466;-71
2022/08/28 13:45:07;;;;;;;18.07;17.07;;;31.20;76.30;;;;;;4913305;29;20458;-72
2022/08/28 13:47:34;;;;;;;17.80;16.80;;;31.80;76.20;;;;;;4913619;29;20461;-72
2022/08/28 13:50:01;;;;;;;18.10;17.30;;;32.20;75.80;;;;;;4913807;29;20465;-71
2022/08/28 13:52:29;;;;;;;17.40;16.30;;;31.90;76.10;;;;;;4913216;29;20891;-72
2022/08/28 13:54:55;;;;;;;17.97;17.00;;;31.70;77.50;;;;;;4913324;29;20457;-71
2022/08/28 13:57:23;;;;;;;18.07;16.80;;;31.40;75.60;;;;;;4913327;29;20458;-71
2022/08/28 13:59:50;;;;;;;17.77;16.77;;;30.30;78.70;;;;;;4913071;29;20832;-72
2022/08/28 14:05:01;;;;;;;18.10;17.20;;;29.60;81.50;;;;;;4913402;29;20429;-71
2022/08/28 14:07:29;;;;;;;18.00;16.97;;;29.50;81.50;;;;;;4913640;29;20462;-72
2022/08/28 14:09:56;;;;;;;17.30;16.50;;;29.40;80.70;;;;;;4913076;29;20454;-71
2022/08/28 14:12:23;;;;;;;16.30;15.37;;;29.80;81.00;;;;;;4912968;29;20509;-72
2022/08/28 14:14:51;;;;;;;17.27;16.37;;;;;;;;;;4913145;29;20455;-71
2022/08/28 14:17:20;;;;;;;17.30;16.40;;;29.90;80.50;;;;;;4913207;29;20846;-72
2022/08/28 14:19:46;;;;;;;16.07;15.37;;;30.00;81.50;;;;;;4913623;29;20454;-72
2022/08/28 14:22:13;;;;;;;18.30;17.20;;;30.20;80.10;;;;;;4915613;29;20940;-73
2022/08/28 14:24:41;;;;;;;18.40;17.33;;;29.80;79.70;;;;;;4916703;29;20937;-71
2022/08/28 14:27:09;;;;;;;18.30;17.33;;;29.40;82.10;;;;;;4916849;29;20811;-72
2022/08/28 14:29:36;;;;;;;16.93;16.13;;;29.00;84.00;;;;;;4916539;29;20457;-72
2022/08/28 14:32:04;;;;;;;16.20;15.23;;;28.90;84.90;;;;;;4916962;29;20449;-71
2022/08/28 14:34:31;;;;;;;16.50;15.70;;;28.70;85.40;;;;;;4916795;29;20496;-71
2022/08/28 14:36:58;;;;;;;16.97;16.27;;;28.60;85.20;;;;;;4916549;29;20948;-72
2022/08/28 14:39:26;;;;;;;17.43;16.37;;;28.50;86.20;;;;;;4916594;29;20450;-72
2022/08/28 14:41:55;;;;;;;18.30;17.20;;;28.40;87.00;;;;;;4916396;29;20446;-71
2022/08/28 14:44:23;;;;;;;17.60;16.70;;;28.50;87.30;;;;;;4916679;29;20956;-72
2022/08/28 14:46:51;;;;;;;17.90;16.90;;;28.70;88.20;;;;;;4916250;29;20480;-71
2022/08/28 14:49:19;;;;;;;17.10;16.20;;;28.90;87.80;;;;;;4916435;29;20458;-72
2022/08/28 14:51:47;;;;;;;17.63;16.53;;;28.80;87.90;;;;;;4916613;29;20873;-70
2022/08/28 14:54:15;;;;;;;17.37;16.57;;;28.60;88.50;;;;;;4916350;29;20549;-73
2022/08/28 14:56:44;;;;;;;18.37;16.70;;;28.70;87.80;;;;;;4916279;29;20469;-72
2022/08/28 14:59:14;;;;;;;16.30;15.60;;;28.70;87.70;;;;;;4916145;29;20454;-71
2022/08/28 15:01:41;;;;;;;15.93;15.23;;;28.50;88.50;;;;;;4916314;29;20458;-73
2022/08/28 15:04:10;;;;;;;17.80;16.80;;;28.60;87.30;;;;;;4916241;29;20454;-72
2022/08/28 15:06:38;;;;;;;17.63;16.53;;;28.50;87.60;;;;;;4916129;29;20881;-72
2022/08/28 15:09:04;;;;;;;17.00;16.17;;;28.20;89.60;;;;;;4915970;29;20454;-71
2022/08/28 15:11:31;;;;;;;17.20;16.40;;;28.20;90.10;;;;;;4916682;29;20458;-72
2022/08/28 15:13:58;;;;;;;18.20;17.30;;;28.00;90.20;;;;;;4916309;29;20494;-72
2022/08/28 15:16:28;;;;;;;17.97;16.77;;;28.00;90.10;;;;;;4916111;29;20540;-72
2022/08/28 15:18:56;;;;;;;17.20;16.20;;;27.90;90.10;;;;;;4916160;29;20494;-72
2022/08/28 15:21:25;;;;;;;18.40;17.20;;;27.90;89.20;;;;;;4915827;29;21007;-71
2022/08/28 15:23:53;;;;;;;16.57;15.87;;;27.90;89.90;;;;;;4915685;29;20701;-70
2022/08/28 15:26:21;;;;;;;16.80;16.00;;;27.80;89.80;;;;;;4915974;29;20454;-71
2022/08/28 15:28:49;;;;;;;18.80;17.70;;;27.80;88.10;;;;;;4915902;29;20494;-72
2022/08/28 15:31:16;;;;;;;16.70;16.00;;;28.10;88.00;;;;;;4916009;29;20968;-71
2022/08/28 15:33:44;;;;;;;17.80;16.70;;;28.00;87.80;;;;;;4915753;29;20498;-71
2022/08/28 15:36:11;;;;;;;16.93;16.20;;;28.10;86.00;;;;;;4913990;29;20463;-72
2022/08/28 15:41:24;;;;;;;16.33;15.43;;;27.70;87.90;;;;;;4914602;29;20434;-72
2022/08/28 15:43:53;;;;;;;16.77;15.93;;;27.20;87.40;;;;;;4915309;29;20451;-71
2022/08/28 15:46:20;;;;;;;18.37;17.37;;;27.10;88.10;;;;;;4914947;29;20950;-71
2022/08/28 15:48:49;;;;;;;17.63;16.63;;;27.10;87.80;;;;;;4915584;29;20802;-71
2022/08/28 15:51:16;;;;;;;16.93;16.13;;;27.20;88.80;;;;;;4915865;29;20482;-70
2022/08/28 15:53:43;;;;;;;15.67;14.87;;;27.10;87.50;;;;;;4915750;29;20500;-70
2022/08/28 15:56:10;;;;;;;16.50;15.70;;;27.00;87.40;;;;;;4915296;29;20465;-71
2022/08/28 15:58:37;;;;;;;17.07;15.90;;;26.90;88.80;;;;;;4915477;29;20462;-69
2022/08/28 16:01:04;;;;;;;17.23;16.43;;;27.10;88.80;;;;;;4915337;29;20463;-70
2022/08/28 16:03:31;;;;;;;15.97;14.87;;;27.10;88.60;;;;;;4915466;29;20457;-71
2022/08/28 16:05:59;;;;;;;15.83;15.03;;;27.20;89.70;;;;;;4915144;29;20873;-70
2022/08/28 16:08:26;;;;;;;16.43;15.53;;;27.00;89.70;;;;;;4915457;29;20832;-71
2022/08/28 16:10:54;;;;;;;17.33;16.43;;;26.70;89.70;;;;;;4915319;29;20803;-71
2022/08/28 16:13:22;;;;;;;16.23;15.40;;;26.70;90.10;;;;;;4915311;29;20494;-71
2022/08/28 16:15:49;;;;;;;16.07;15.37;;;26.80;90.50;;;;;;4914712;29;20469;-71
2022/08/28 16:18:16;;;;;;;15.40;14.70;;;26.80;90.70;;;;;;4914946;29;20489;-71